createdAt,value
2019-05-29T00:00:02.000Z,8.812
2019-05-29T00:03:02.000Z,8.812
2019-05-29T00:04:01.000Z,8.875
2019-05-29T00:14:02.000Z,9.062
2019-05-29T00:22:02.000Z,8.937
2019-05-29T00:23:02.000Z,9
2019-05-29T00:23:02.000Z,9
2019-05-29T00:24:01.000Z,9
2019-05-29T00:25:01.000Z,9.062
2019-05-29T00:26:01.000Z,9.062
2019-05-29T00:27:02.000Z,9.062
2019-05-29T00:28:02.000Z,9.062
2019-05-29T00:29:01.000Z,9.062
2019-05-29T00:30:01.000Z,9.062
2019-05-29T00:31:01.000Z,9
2019-05-29T00:32:01.000Z,9
2019-05-29T00:33:01.000Z,9
2019-05-29T00:34:01.000Z,9
2019-05-29T00:35:01.000Z,9
2019-05-29T00:36:01.000Z,9
2019-05-29T00:37:02.000Z,8.937
2019-05-29T00:37:02.000Z,8.937
2019-05-29T00:38:01.000Z,8.875
2019-05-29T00:39:01.000Z,8.937
2019-05-29T00:40:01.000Z,8.937
2019-05-29T00:41:01.000Z,8.937
2019-05-29T00:42:01.000Z,8.937
2019-05-29T00:43:01.000Z,8.937
2019-05-29T00:44:01.000Z,8.937
2019-05-29T00:45:01.000Z,9
2019-05-29T00:46:02.000Z,8.937
2019-05-29T00:47:02.000Z,8.937
2019-05-29T00:48:01.000Z,8.937
2019-05-29T00:49:01.000Z,9
2019-05-29T00:49:01.000Z,9
2019-05-29T00:50:01.000Z,9
2019-05-29T00:51:01.000Z,9
2019-05-29T00:52:01.000Z,9
2019-05-29T00:53:01.000Z,9
2019-05-29T00:54:01.000Z,9.062
2019-05-29T00:55:01.000Z,9.062
2019-05-29T00:56:02.000Z,9.062
2019-05-29T00:57:02.000Z,9
2019-05-29T00:58:02.000Z,9.062
2019-05-29T00:59:02.000Z,9
2019-05-29T01:00:01.000Z,9.062
2019-05-29T01:01:01.000Z,9
2019-05-29T01:02:01.000Z,9.062
2019-05-29T01:03:02.000Z,9.125
2019-05-29T01:03:02.000Z,9.125
2019-05-29T01:04:02.000Z,9.187
2019-05-29T01:05:02.000Z,9.187
2019-05-29T01:06:01.000Z,9.187
2019-05-29T01:07:01.000Z,9.25
2019-05-29T01:08:01.000Z,9.25
2019-05-29T01:09:02.000Z,9.187
2019-05-29T01:10:02.000Z,9.187
2019-05-29T01:11:02.000Z,9.187
2019-05-29T01:12:02.000Z,9.187
2019-05-29T01:13:02.000Z,9.187
2019-05-29T01:14:02.000Z,9.25
2019-05-29T01:15:02.000Z,9.25
2019-05-29T01:16:01.000Z,9.25
2019-05-29T01:16:02.000Z,9.25
2019-05-29T01:17:01.000Z,9.25
2019-05-29T01:18:01.000Z,9.312
2019-05-29T01:19:01.000Z,9.312
2019-05-29T01:20:01.000Z,9.312
2019-05-29T01:21:01.000Z,9.312
2019-05-29T01:22:01.000Z,9.312
2019-05-29T01:23:01.000Z,9.312
2019-05-29T01:24:01.000Z,9.312
2019-05-29T01:25:02.000Z,9.375
2019-05-29T01:26:02.000Z,9.312
2019-05-29T01:27:02.000Z,9.312
2019-05-29T01:28:02.000Z,9.375
2019-05-29T01:28:02.000Z,9.375
2019-05-29T01:29:02.000Z,9.375
2019-05-29T01:30:02.000Z,9.375
2019-05-29T01:31:01.000Z,9.375
2019-05-29T01:32:01.000Z,9.437
2019-05-29T01:33:01.000Z,9.437
2019-05-29T01:34:01.000Z,9.437
2019-05-29T01:35:01.000Z,9.437
2019-05-29T01:36:01.000Z,9.437
2019-05-29T01:37:01.000Z,9.437
2019-05-29T01:38:01.000Z,9.375
2019-05-29T01:38:01.000Z,9.375
2019-05-29T01:39:01.000Z,9.437
2019-05-29T01:40:02.000Z,9.437
2019-05-29T01:41:01.000Z,9.5
2019-05-29T01:42:01.000Z,9.437
2019-05-29T01:43:01.000Z,9.437
2019-05-29T01:44:01.000Z,9.437
2019-05-29T01:45:01.000Z,9.437
2019-05-29T01:46:02.000Z,9.437
2019-05-29T01:47:02.000Z,9.5
2019-05-29T01:48:02.000Z,9.5
2019-05-29T01:49:02.000Z,9.562
2019-05-29T01:50:02.000Z,9.5
2019-05-29T01:51:02.000Z,9.5
2019-05-29T01:52:02.000Z,9.5
2019-05-29T01:52:02.000Z,9.5
2019-05-29T01:53:02.000Z,9.5
2019-05-29T01:54:02.000Z,9.5
2019-05-29T01:55:01.000Z,9.562
2019-05-29T01:56:02.000Z,9.562
2019-05-29T01:57:02.000Z,9.5
2019-05-29T01:58:02.000Z,9.5
2019-05-29T01:59:02.000Z,9.5
2019-05-29T02:00:02.000Z,9.5
2019-05-29T02:01:02.000Z,9.5
2019-05-29T02:02:02.000Z,9.5
2019-05-29T02:03:01.000Z,9.5
2019-05-29T02:04:01.000Z,9.5
2019-05-29T02:05:01.000Z,9.5
2019-05-29T02:06:02.000Z,9.437
2019-05-29T02:06:02.000Z,9.437
2019-05-29T02:07:02.000Z,9.437
2019-05-29T02:08:01.000Z,9.437
2019-05-29T02:09:02.000Z,9.437
2019-05-29T02:10:01.000Z,9.375
2019-05-29T02:11:01.000Z,9.375
2019-05-29T02:12:01.000Z,9.375
2019-05-29T02:13:01.000Z,9.312
2019-05-29T02:14:01.000Z,9.375
2019-05-29T02:15:01.000Z,9.375
2019-05-29T02:16:01.000Z,9.437
2019-05-29T02:17:02.000Z,9.437
2019-05-29T02:18:02.000Z,9.437
2019-05-29T02:19:02.000Z,9.437
2019-05-29T02:20:02.000Z,9.375
2019-05-29T02:20:02.000Z,9.375
2019-05-29T02:21:02.000Z,9.375
2019-05-29T02:22:02.000Z,9.375
2019-05-29T02:23:01.000Z,9.437
2019-05-29T02:24:02.000Z,9.375
2019-05-29T02:25:02.000Z,9.375
2019-05-29T02:26:01.000Z,9.437
2019-05-29T02:27:01.000Z,9.375
2019-05-29T02:28:01.000Z,9.375
2019-05-29T02:29:01.000Z,9.375
2019-05-29T02:30:01.000Z,9.375
2019-05-29T02:30:01.000Z,9.375
2019-05-29T02:31:01.000Z,9.375
2019-05-29T02:31:02.000Z,9.375
2019-05-29T02:32:01.000Z,9.375
2019-05-29T02:32:01.000Z,9.375
2019-05-29T02:33:01.000Z,9.312
2019-05-29T02:33:01.000Z,9.312
2019-05-29T02:34:01.000Z,9.375
2019-05-29T02:34:01.000Z,9.375
2019-05-29T02:35:01.000Z,9.375
2019-05-29T02:36:01.000Z,9.312
2019-05-29T02:37:01.000Z,9.312
2019-05-29T02:38:02.000Z,9.312
2019-05-29T02:38:02.000Z,9.312
2019-05-29T02:39:02.000Z,9.25
2019-05-29T02:40:01.000Z,9.312
2019-05-29T02:41:01.000Z,9.25
2019-05-29T02:42:01.000Z,9.25
2019-05-29T02:43:01.000Z,9.25
2019-05-29T02:44:02.000Z,9.25
2019-05-29T02:45:01.000Z,9.25
2019-05-29T02:46:01.000Z,9.25
2019-05-29T02:47:01.000Z,9.25
2019-05-29T02:48:01.000Z,9.25
2019-05-29T02:49:01.000Z,9.187
2019-05-29T02:50:02.000Z,9.187
2019-05-29T02:51:02.000Z,9.187
2019-05-29T02:52:02.000Z,9.125
2019-05-29T02:52:02.000Z,9.125
2019-05-29T02:53:01.000Z,9.125
2019-05-29T02:54:01.000Z,9.125
2019-05-29T02:55:01.000Z,9.125
2019-05-29T02:56:02.000Z,9.125
2019-05-29T02:57:02.000Z,9.062
2019-05-29T02:58:02.000Z,9.062
2019-05-29T02:59:02.000Z,9.062
2019-05-29T03:00:01.000Z,9.062
2019-05-29T03:01:01.000Z,9.062
2019-05-29T03:02:01.000Z,9.062
2019-05-29T03:03:01.000Z,9.062
2019-05-29T03:03:01.000Z,9.062
2019-05-29T03:04:01.000Z,9.062
2019-05-29T03:05:01.000Z,9.062
2019-05-29T03:06:02.000Z,9.062
2019-05-29T03:07:02.000Z,9.125
2019-05-29T03:08:02.000Z,9.125
2019-05-29T03:09:02.000Z,9.187
2019-05-29T03:10:01.000Z,9.125
2019-05-29T03:11:01.000Z,9.125
2019-05-29T03:12:01.000Z,9.125
2019-05-29T03:13:01.000Z,9.062
2019-05-29T03:14:01.000Z,9.062
2019-05-29T03:15:02.000Z,9
2019-05-29T03:16:02.000Z,9.062
2019-05-29T03:16:02.000Z,9.062
2019-05-29T03:17:02.000Z,9.062
2019-05-29T03:18:02.000Z,9
2019-05-29T03:19:02.000Z,9.062
2019-05-29T03:20:02.000Z,9.062
2019-05-29T03:21:01.000Z,9.062
2019-05-29T03:22:02.000Z,9.062
2019-05-29T03:23:01.000Z,9.062
2019-05-29T03:24:01.000Z,9.062
2019-05-29T03:25:02.000Z,9.062
2019-05-29T03:26:02.000Z,9.062
2019-05-29T03:27:02.000Z,9.062
2019-05-29T03:28:02.000Z,9.062
2019-05-29T03:29:02.000Z,9.062
2019-05-29T03:29:02.000Z,9.062
2019-05-29T03:30:02.000Z,9.062
2019-05-29T03:31:02.000Z,9.125
2019-05-29T03:32:02.000Z,9.125
2019-05-29T03:33:01.000Z,9.125
2019-05-29T03:34:01.000Z,9.062
2019-05-29T03:35:01.000Z,9.062
2019-05-29T03:36:01.000Z,9.125
2019-05-29T03:37:02.000Z,9.125
2019-05-29T03:38:01.000Z,9.125
2019-05-29T03:39:01.000Z,9.125
2019-05-29T03:40:01.000Z,9.125
2019-05-29T03:41:02.000Z,9.125
2019-05-29T03:41:02.000Z,9.125
2019-05-29T03:42:02.000Z,9.125
2019-05-29T03:43:02.000Z,9.125
2019-05-29T03:44:01.000Z,9.125
2019-05-29T03:45:02.000Z,9.125
2019-05-29T03:46:02.000Z,9.187
2019-05-29T03:47:02.000Z,9.187
2019-05-29T03:48:02.000Z,9.125
2019-05-29T03:49:01.000Z,9.187
2019-05-29T03:49:01.000Z,9.187
2019-05-29T03:50:01.000Z,9.187
2019-05-29T03:51:02.000Z,9.187
2019-05-29T03:52:01.000Z,9.187
2019-05-29T03:53:01.000Z,9.187
2019-05-29T03:54:01.000Z,9.187
2019-05-29T03:55:01.000Z,9.25
2019-05-29T03:56:02.000Z,9.25
2019-05-29T03:57:02.000Z,9.25
2019-05-29T03:58:02.000Z,9.25
2019-05-29T03:59:02.000Z,9.25
2019-05-29T04:00:01.000Z,9.312
2019-05-29T04:01:02.000Z,9.312
2019-05-29T04:02:02.000Z,9.375
2019-05-29T04:03:02.000Z,9.375
2019-05-29T04:03:02.000Z,9.375
2019-05-29T04:04:02.000Z,9.375
2019-05-29T04:05:01.000Z,9.437
2019-05-29T04:06:01.000Z,9.437
2019-05-29T04:07:01.000Z,9.437
2019-05-29T04:08:01.000Z,9.5
2019-05-29T04:09:01.000Z,9.5
2019-05-29T04:10:01.000Z,9.5
2019-05-29T04:11:02.000Z,9.5
2019-05-29T04:12:01.000Z,9.562
2019-05-29T04:13:01.000Z,9.562
2019-05-29T04:14:01.000Z,9.562
2019-05-29T04:15:01.000Z,9.625
2019-05-29T04:16:01.000Z,9.625
2019-05-29T04:16:02.000Z,9.625
2019-05-29T04:17:01.000Z,9.625
2019-05-29T04:18:01.000Z,9.625
2019-05-29T04:19:01.000Z,9.625
2019-05-29T04:20:01.000Z,9.625
2019-05-29T04:21:01.000Z,9.625
2019-05-29T04:22:01.000Z,9.625
2019-05-29T04:23:02.000Z,9.625
2019-05-29T04:24:02.000Z,9.625
2019-05-29T04:25:02.000Z,9.625
2019-05-29T04:26:01.000Z,9.625
2019-05-29T04:27:01.000Z,9.625
2019-05-29T04:28:01.000Z,9.625
2019-05-29T04:28:02.000Z,9.625
2019-05-29T04:29:01.000Z,9.625
2019-05-29T04:30:01.000Z,9.625
2019-05-29T04:31:02.000Z,9.687
2019-05-29T04:32:01.000Z,9.687
2019-05-29T04:33:01.000Z,9.687
2019-05-29T04:34:01.000Z,9.75
2019-05-29T04:35:02.000Z,9.75
2019-05-29T04:36:02.000Z,9.75
2019-05-29T04:37:02.000Z,9.75
2019-05-29T04:38:02.000Z,9.75
2019-05-29T04:39:02.000Z,9.812
2019-05-29T04:40:01.000Z,9.875
2019-05-29T04:41:01.000Z,9.937
2019-05-29T04:41:02.000Z,9.937
2019-05-29T04:42:01.000Z,9.937
2019-05-29T04:43:01.000Z,10
2019-05-29T04:44:01.000Z,9.937
2019-05-29T04:45:01.000Z,10
2019-05-29T04:46:01.000Z,10
2019-05-29T04:47:01.000Z,10.062
2019-05-29T04:48:01.000Z,10.062
2019-05-29T04:49:01.000Z,10
2019-05-29T04:50:01.000Z,10.062
2019-05-29T04:51:02.000Z,10.062
2019-05-29T04:52:02.000Z,10.062
2019-05-29T04:52:02.000Z,10.062
2019-05-29T04:53:01.000Z,10.125
2019-05-29T04:54:01.000Z,10.125
2019-05-29T04:55:01.000Z,10.125
2019-05-29T04:56:01.000Z,10.187
2019-05-29T04:57:01.000Z,10.125
2019-05-29T04:58:02.000Z,10.125
2019-05-29T04:59:02.000Z,10.125
2019-05-29T05:00:02.000Z,10.187
2019-05-29T05:01:02.000Z,10.25
2019-05-29T05:01:02.000Z,10.25
2019-05-29T05:02:02.000Z,10.312
2019-05-29T05:03:01.000Z,10.375
2019-05-29T05:04:02.000Z,10.437
2019-05-29T05:05:02.000Z,10.5
2019-05-29T05:06:02.000Z,10.562
2019-05-29T05:07:02.000Z,10.625
2019-05-29T05:08:02.000Z,10.687
2019-05-29T05:09:02.000Z,10.75
2019-05-29T05:10:02.000Z,10.812
2019-05-29T05:11:01.000Z,10.875
2019-05-29T05:12:02.000Z,10.812
2019-05-29T05:13:02.000Z,10.75
2019-05-29T05:14:02.000Z,10.812
2019-05-29T05:14:02.000Z,10.812
2019-05-29T05:15:02.000Z,10.812
2019-05-29T05:16:02.000Z,11.062
2019-05-29T05:17:02.000Z,11.375
2019-05-29T05:18:01.000Z,11.812
2019-05-29T05:19:01.000Z,12.187
2019-05-29T05:20:01.000Z,12.562
2019-05-29T05:21:01.000Z,12.875
2019-05-29T05:22:01.000Z,13.25
2019-05-29T05:23:01.000Z,13.25
2019-05-29T05:24:01.000Z,13.062
2019-05-29T05:25:01.000Z,12.75
2019-05-29T05:26:01.000Z,12.625
2019-05-29T05:27:01.000Z,12.5
2019-05-29T05:27:02.000Z,12.5
2019-05-29T05:28:01.000Z,12.5
2019-05-29T05:29:01.000Z,12.375
2019-05-29T05:30:01.000Z,12.312
2019-05-29T05:31:01.000Z,12.25
2019-05-29T05:32:01.000Z,12.125
2019-05-29T05:33:01.000Z,12
2019-05-29T05:34:01.000Z,11.937
2019-05-29T05:35:01.000Z,11.75
2019-05-29T05:36:02.000Z,11.687
2019-05-29T05:37:02.000Z,11.75
2019-05-29T05:38:02.000Z,11.562
2019-05-29T05:39:01.000Z,11.5
2019-05-29T05:40:02.000Z,11.437
2019-05-29T05:41:01.000Z,11.5
2019-05-29T05:41:01.000Z,11.5
2019-05-29T05:42:02.000Z,11.5
2019-05-29T05:43:02.000Z,11.562
2019-05-29T05:44:02.000Z,11.687
2019-05-29T05:45:02.000Z,11.875
2019-05-29T05:46:02.000Z,11.937
2019-05-29T05:47:01.000Z,12.125
2019-05-29T05:48:02.000Z,12.437
2019-05-29T05:49:02.000Z,12.875
2019-05-29T05:50:02.000Z,13.25
2019-05-29T05:51:02.000Z,13.625
2019-05-29T05:52:01.000Z,14.187
2019-05-29T05:53:01.000Z,14.562
2019-05-29T05:54:01.000Z,14.875
2019-05-29T05:55:01.000Z,15.062
2019-05-29T05:55:02.000Z,15.062
2019-05-29T05:56:01.000Z,15.437
2019-05-29T05:57:01.000Z,15.437
2019-05-29T05:58:01.000Z,15.562
2019-05-29T05:59:01.000Z,15.75
2019-05-29T06:00:01.000Z,15.687
2019-05-29T06:01:01.000Z,15.437
2019-05-29T06:02:01.000Z,15.562
2019-05-29T06:03:01.000Z,15.562
2019-05-29T06:04:01.000Z,15.437
2019-05-29T06:05:01.000Z,15.625
2019-05-29T06:06:01.000Z,16
2019-05-29T06:06:01.000Z,16
2019-05-29T06:07:01.000Z,16.437
2019-05-29T06:08:01.000Z,16.312
2019-05-29T06:09:01.000Z,16.312
2019-05-29T06:10:02.000Z,16.187
2019-05-29T06:11:02.000Z,16.125
2019-05-29T06:12:02.000Z,16.062
2019-05-29T06:13:02.000Z,16.187
2019-05-29T06:14:01.000Z,16.187
2019-05-29T06:15:01.000Z,15.875
2019-05-29T06:16:01.000Z,15.562
2019-05-29T06:16:02.000Z,15.562
2019-05-29T06:17:02.000Z,15.687
2019-05-29T06:18:01.000Z,15.687
2019-05-29T06:19:02.000Z,15.562
2019-05-29T06:20:01.000Z,15.5
2019-05-29T06:21:01.000Z,15.812
2019-05-29T06:22:02.000Z,16.187
2019-05-29T06:23:02.000Z,16.5
2019-05-29T06:24:02.000Z,16.562
2019-05-29T06:25:02.000Z,16.437
2019-05-29T06:26:02.000Z,16.437
2019-05-29T06:27:02.000Z,15.75
2019-05-29T06:28:02.000Z,16.187
2019-05-29T06:28:02.000Z,16.187
2019-05-29T06:29:02.000Z,16.812
2019-05-29T06:30:02.000Z,17.437
2019-05-29T06:31:02.000Z,17.812
2019-05-29T06:32:02.000Z,17.812
2019-05-29T06:33:02.000Z,17.75
2019-05-29T06:34:01.000Z,18.125
2019-05-29T06:35:01.000Z,18.125
2019-05-29T06:36:01.000Z,17.812
2019-05-29T06:37:01.000Z,17.687
2019-05-29T06:38:01.000Z,17.125
2019-05-29T06:39:01.000Z,16.875
2019-05-29T06:40:01.000Z,16.875
2019-05-29T06:41:01.000Z,17.125
2019-05-29T06:41:01.000Z,17.125
2019-05-29T06:42:01.000Z,17.375
2019-05-29T06:43:02.000Z,17.562
2019-05-29T06:44:02.000Z,17.5
2019-05-29T06:45:02.000Z,17.375
2019-05-29T06:46:01.000Z,17.437
2019-05-29T06:47:01.000Z,17.5
2019-05-29T06:48:01.000Z,17.5
2019-05-29T06:49:01.000Z,17.5
2019-05-29T06:50:02.000Z,17.562
2019-05-29T06:51:01.000Z,17.875
2019-05-29T06:52:01.000Z,17.875
2019-05-29T06:53:01.000Z,17.437
2019-05-29T06:54:01.000Z,17.312
2019-05-29T06:55:01.000Z,17.25
2019-05-29T06:55:01.000Z,17.25
2019-05-29T06:56:01.000Z,17.437
2019-05-29T06:57:02.000Z,17.25
2019-05-29T06:58:02.000Z,17.437
2019-05-29T06:59:01.000Z,17.187
2019-05-29T07:00:01.000Z,17.125
2019-05-29T07:01:01.000Z,17.062
2019-05-29T07:02:01.000Z,16.937
2019-05-29T07:03:01.000Z,16.937
2019-05-29T07:04:01.000Z,16.875
2019-05-29T07:05:01.000Z,16.812
2019-05-29T07:06:01.000Z,16.75
2019-05-29T07:07:02.000Z,16.562
2019-05-29T07:08:02.000Z,16.562
2019-05-29T07:09:01.000Z,16.562
2019-05-29T07:09:01.000Z,16.562
2019-05-29T07:10:01.000Z,16.75
2019-05-29T07:11:01.000Z,16.937
2019-05-29T07:12:02.000Z,16.875
2019-05-29T07:13:02.000Z,16.75
2019-05-29T07:14:02.000Z,16.75
2019-05-29T07:15:02.000Z,16.125
2019-05-29T07:16:01.000Z,16.062
2019-05-29T07:17:01.000Z,16
2019-05-29T07:18:01.000Z,16.125
2019-05-29T07:19:01.000Z,16.125
2019-05-29T07:20:01.000Z,16.375
2019-05-29T07:20:02.000Z,16.375
2019-05-29T07:21:01.000Z,16.437
2019-05-29T07:22:01.000Z,16.562
2019-05-29T07:23:02.000Z,16.937
2019-05-29T07:24:01.000Z,17.062
2019-05-29T07:25:02.000Z,17.312
2019-05-29T07:26:01.000Z,17.875
2019-05-29T07:27:01.000Z,18.125
2019-05-29T07:28:01.000Z,18.312
2019-05-29T07:29:01.000Z,18.437
2019-05-29T07:29:02.000Z,18.437
2019-05-29T07:30:02.000Z,18.75
2019-05-29T07:31:01.000Z,18.75
2019-05-29T07:32:01.000Z,18.875
2019-05-29T07:33:01.000Z,18.75
2019-05-29T07:34:02.000Z,18.562
2019-05-29T07:35:01.000Z,18.375
2019-05-29T07:36:01.000Z,18.625
2019-05-29T07:37:01.000Z,19
2019-05-29T07:38:01.000Z,19.187
2019-05-29T07:39:02.000Z,19.5
2019-05-29T07:40:02.000Z,19.812
2019-05-29T07:41:01.000Z,20
2019-05-29T07:42:01.000Z,20.25
2019-05-29T07:42:02.000Z,20.25
2019-05-29T07:43:01.000Z,20.25
2019-05-29T07:44:01.000Z,19.375
2019-05-29T07:45:01.000Z,18.875
2019-05-29T07:46:01.000Z,18.75
2019-05-29T07:47:01.000Z,18.812
2019-05-29T07:48:01.000Z,19.062
2019-05-29T07:49:01.000Z,19
2019-05-29T07:50:01.000Z,19.375
2019-05-29T07:51:01.000Z,19.5
2019-05-29T07:52:02.000Z,19.75
2019-05-29T07:53:02.000Z,20.187
2019-05-29T07:54:01.000Z,20.375
2019-05-29T07:54:02.000Z,20.375
2019-05-29T07:55:01.000Z,20.437
2019-05-29T07:56:01.000Z,19.875
2019-05-29T07:57:02.000Z,19.437
2019-05-29T07:58:02.000Z,19.062
2019-05-29T07:59:01.000Z,18.437
2019-05-29T08:00:01.000Z,18.125
2019-05-29T08:01:02.000Z,18.187
2019-05-29T08:02:02.000Z,18.5
2019-05-29T08:03:02.000Z,18.687
2019-05-29T08:04:02.000Z,19.187
2019-05-29T08:05:02.000Z,19.25
2019-05-29T08:06:02.000Z,19.5
2019-05-29T08:07:02.000Z,19.625
2019-05-29T08:08:02.000Z,19
2019-05-29T08:08:02.000Z,19
2019-05-29T08:09:02.000Z,18.375
2019-05-29T08:10:02.000Z,18.25
2019-05-29T08:11:02.000Z,18.312
2019-05-29T08:12:02.000Z,18.5
2019-05-29T08:13:02.000Z,18.312
2019-05-29T08:14:02.000Z,18.312
2019-05-29T08:15:02.000Z,18.312
2019-05-29T08:16:02.000Z,18.062
2019-05-29T08:17:01.000Z,18.062
2019-05-29T08:18:01.000Z,17.937
2019-05-29T08:19:01.000Z,18
2019-05-29T08:20:01.000Z,17.812
2019-05-29T08:21:01.000Z,17.687
2019-05-29T08:22:01.000Z,17.562
2019-05-29T08:22:01.000Z,17.562
2019-05-29T08:23:01.000Z,17.562
2019-05-29T08:24:01.000Z,18.5
2019-05-29T08:25:01.000Z,18.75
2019-05-29T08:26:01.000Z,18.062
2019-05-29T08:27:01.000Z,17.312
2019-05-29T08:28:01.000Z,17.187
2019-05-29T08:29:01.000Z,17.187
2019-05-29T08:30:01.000Z,17.25
2019-05-29T08:31:01.000Z,17.562
2019-05-29T08:32:01.000Z,18.187
2019-05-29T08:33:01.000Z,18.812
2019-05-29T08:34:01.000Z,19.5
2019-05-29T08:34:01.000Z,19.5
2019-05-29T08:35:01.000Z,19.75
2019-05-29T08:36:01.000Z,19.75
2019-05-29T08:37:01.000Z,19.062
2019-05-29T08:38:02.000Z,18.937
2019-05-29T08:39:01.000Z,18.875
2019-05-29T08:40:01.000Z,18.812
2019-05-29T08:41:01.000Z,19.187
2019-05-29T08:42:01.000Z,19.437
2019-05-29T08:42:02.000Z,19.437
2019-05-29T08:43:02.000Z,19.75
2019-05-29T08:44:02.000Z,19.562
2019-05-29T08:45:02.000Z,18.875
2019-05-29T08:46:02.000Z,18.25
2019-05-29T08:47:02.000Z,18.25
2019-05-29T08:48:01.000Z,18.437
2019-05-29T08:49:01.000Z,18.75
2019-05-29T08:50:01.000Z,19.187
2019-05-29T08:51:02.000Z,19.625
2019-05-29T08:52:02.000Z,19.375
2019-05-29T08:53:01.000Z,19.375
2019-05-29T08:54:01.000Z,19.562
2019-05-29T08:55:02.000Z,19.437
2019-05-29T08:56:02.000Z,19.125
2019-05-29T08:56:02.000Z,19.125
2019-05-29T08:57:02.000Z,18.937
2019-05-29T08:58:02.000Z,19.062
2019-05-29T08:59:01.000Z,19.312
2019-05-29T09:00:01.000Z,19.625
2019-05-29T09:01:01.000Z,19.937
2019-05-29T09:02:01.000Z,19.812
2019-05-29T09:03:01.000Z,19.812
2019-05-29T09:04:01.000Z,19.875
2019-05-29T09:05:01.000Z,19.937
2019-05-29T09:06:01.000Z,20.312
2019-05-29T09:07:02.000Z,20.312
2019-05-29T09:08:02.000Z,19.937
2019-05-29T09:09:02.000Z,20.125
2019-05-29T09:09:02.000Z,20.125
2019-05-29T09:10:02.000Z,20.375
2019-05-29T09:11:02.000Z,19.687
2019-05-29T09:12:02.000Z,18.625
2019-05-29T09:13:02.000Z,18
2019-05-29T09:14:02.000Z,17.375
2019-05-29T09:15:02.000Z,17.25
2019-05-29T09:16:01.000Z,17.062
2019-05-29T09:17:01.000Z,17.187
2019-05-29T09:18:01.000Z,17.687
2019-05-29T09:19:01.000Z,18.187
2019-05-29T09:20:01.000Z,18.625
2019-05-29T09:21:01.000Z,18.937
2019-05-29T09:22:01.000Z,19.187
2019-05-29T09:22:01.000Z,19.187
2019-05-29T09:23:02.000Z,19.562
2019-05-29T09:24:01.000Z,19.312
2019-05-29T09:25:01.000Z,19.5
2019-05-29T09:26:01.000Z,19.687
2019-05-29T09:27:02.000Z,20.062
2019-05-29T09:28:01.000Z,19.875
2019-05-29T09:29:01.000Z,19.875
2019-05-29T09:30:02.000Z,19.812
2019-05-29T09:31:02.000Z,19.812
2019-05-29T09:32:02.000Z,19.187
2019-05-29T09:33:02.000Z,19.187
2019-05-29T09:34:01.000Z,19.125
2019-05-29T09:35:01.000Z,19.5
2019-05-29T09:35:02.000Z,19.5
2019-05-29T09:36:01.000Z,19.562
2019-05-29T09:37:01.000Z,19.625
2019-05-29T09:38:02.000Z,19.687
2019-05-29T09:39:02.000Z,19.687
2019-05-29T09:40:01.000Z,19.75
2019-05-29T09:41:01.000Z,19.75
2019-05-29T09:42:01.000Z,19.437
2019-05-29T09:43:01.000Z,19.062
2019-05-29T09:44:01.000Z,18.812
2019-05-29T09:45:01.000Z,18.75
2019-05-29T09:46:02.000Z,19.062
2019-05-29T09:46:02.000Z,19.062
2019-05-29T09:47:02.000Z,19.187
2019-05-29T09:48:02.000Z,19.625
2019-05-29T09:49:02.000Z,20.312
2019-05-29T09:50:02.000Z,20.062
2019-05-29T09:51:01.000Z,20
2019-05-29T09:52:01.000Z,20
2019-05-29T09:53:01.000Z,20.125
2019-05-29T09:54:01.000Z,20.187
2019-05-29T09:55:01.000Z,20.25
2019-05-29T09:56:01.000Z,20.062
2019-05-29T09:56:02.000Z,20.062
2019-05-29T09:57:01.000Z,20.187
2019-05-29T09:58:01.000Z,20.25
2019-05-29T09:59:01.000Z,20.062
2019-05-29T10:00:02.000Z,20.062
2019-05-29T10:01:02.000Z,20.187
2019-05-29T10:02:02.000Z,20.25
2019-05-29T10:03:01.000Z,20.5
2019-05-29T10:04:01.000Z,20.812
2019-05-29T10:05:01.000Z,20.875
2019-05-29T10:06:01.000Z,20.875
2019-05-29T10:07:02.000Z,20.937
2019-05-29T10:08:02.000Z,20.687
2019-05-29T10:09:02.000Z,20.25
2019-05-29T10:09:02.000Z,20.25
2019-05-29T10:10:01.000Z,19.875
2019-05-29T10:11:01.000Z,19.75
2019-05-29T10:12:01.000Z,19.75
2019-05-29T10:13:01.000Z,19.875
2019-05-29T10:14:01.000Z,20.062
2019-05-29T10:15:01.000Z,20.312
2019-05-29T10:16:01.000Z,20.375
2019-05-29T10:17:01.000Z,20.437
2019-05-29T10:18:01.000Z,20.625
2019-05-29T10:19:01.000Z,20.687
2019-05-29T10:20:01.000Z,20.875
2019-05-29T10:21:02.000Z,21
2019-05-29T10:22:02.000Z,21.062
2019-05-29T10:22:02.000Z,21.062
2019-05-29T10:23:02.000Z,21.125
2019-05-29T10:24:02.000Z,21
2019-05-29T10:25:01.000Z,20.812
2019-05-29T10:26:02.000Z,20.812
2019-05-29T10:27:02.000Z,20.375
2019-05-29T10:28:02.000Z,20.312
2019-05-29T10:29:02.000Z,20.312
2019-05-29T10:30:02.000Z,19.937
2019-05-29T10:31:01.000Z,19.375
2019-05-29T10:32:01.000Z,18.937
2019-05-29T10:33:01.000Z,19.062
2019-05-29T10:34:01.000Z,19.437
2019-05-29T10:35:01.000Z,20
2019-05-29T10:36:01.000Z,20.5
2019-05-29T10:36:01.000Z,20.5
2019-05-29T10:37:02.000Z,20.75
2019-05-29T10:38:02.000Z,21.062
2019-05-29T10:39:01.000Z,21.125
2019-05-29T10:40:02.000Z,21.125
2019-05-29T10:41:02.000Z,20.75
2019-05-29T10:42:02.000Z,20.687
2019-05-29T10:43:02.000Z,20.5
2019-05-29T10:44:02.000Z,20.5
2019-05-29T10:45:02.000Z,20.437
2019-05-29T10:46:01.000Z,20.625
2019-05-29T10:47:01.000Z,20.687
2019-05-29T10:48:01.000Z,20.687
2019-05-29T10:49:01.000Z,20.875
2019-05-29T10:49:02.000Z,20.875
2019-05-29T10:50:01.000Z,21.062
2019-05-29T10:51:02.000Z,20.812
2019-05-29T10:52:02.000Z,20.25
2019-05-29T10:53:02.000Z,20.25
2019-05-29T10:54:01.000Z,19
2019-05-29T10:55:01.000Z,18.5
2019-05-29T10:56:02.000Z,18.187
2019-05-29T10:57:01.000Z,18.125
2019-05-29T10:58:01.000Z,17.875
2019-05-29T10:59:01.000Z,18.125
2019-05-29T11:00:01.000Z,18.625
2019-05-29T11:01:02.000Z,18.875
2019-05-29T11:01:02.000Z,18.875
2019-05-29T11:02:02.000Z,19
2019-05-29T11:03:02.000Z,19.312
2019-05-29T11:04:02.000Z,19.562
2019-05-29T11:05:01.000Z,19.625
2019-05-29T11:06:01.000Z,19.75
2019-05-29T11:07:01.000Z,19.937
2019-05-29T11:08:01.000Z,20
2019-05-29T11:09:01.000Z,20.25
2019-05-29T11:10:01.000Z,20.125
2019-05-29T11:10:01.000Z,20.125
2019-05-29T11:11:01.000Z,20.25
2019-05-29T11:12:01.000Z,20.5
2019-05-29T11:13:01.000Z,20.875
2019-05-29T11:14:01.000Z,21.125
2019-05-29T11:15:02.000Z,21.187
2019-05-29T11:16:02.000Z,21.562
2019-05-29T11:17:01.000Z,21.562
2019-05-29T11:18:01.000Z,21.937
2019-05-29T11:19:01.000Z,22.312
2019-05-29T11:20:01.000Z,22.062
2019-05-29T11:21:02.000Z,21.625
2019-05-29T11:22:02.000Z,21.437
2019-05-29T11:23:01.000Z,21.25
2019-05-29T11:24:01.000Z,21.25
2019-05-29T11:24:02.000Z,21.25
2019-05-29T11:25:01.000Z,20.937
2019-05-29T11:26:01.000Z,20.75
2019-05-29T11:27:01.000Z,20.437
2019-05-29T11:28:01.000Z,19.937
2019-05-29T11:29:01.000Z,19.937
2019-05-29T11:30:01.000Z,20
2019-05-29T11:31:01.000Z,20.187
2019-05-29T11:32:02.000Z,20.625
2019-05-29T11:33:01.000Z,20.687
2019-05-29T11:34:01.000Z,20.5
2019-05-29T11:35:02.000Z,20.562
2019-05-29T11:36:02.000Z,20.437
2019-05-29T11:37:02.000Z,20.25
2019-05-29T11:37:02.000Z,20.25
2019-05-29T11:38:02.000Z,20
2019-05-29T11:39:02.000Z,20
2019-05-29T11:40:02.000Z,20.25
2019-05-29T11:41:01.000Z,20.562
2019-05-29T11:42:01.000Z,20.75
2019-05-29T11:43:01.000Z,20.75
2019-05-29T11:44:01.000Z,20.437
2019-05-29T11:45:01.000Z,20.187
2019-05-29T11:46:01.000Z,20.062
2019-05-29T11:47:01.000Z,19.875
2019-05-29T11:48:02.000Z,20.062
2019-05-29T11:49:02.000Z,20.375
2019-05-29T11:50:01.000Z,20.375
2019-05-29T11:51:02.000Z,20.375
2019-05-29T11:51:02.000Z,20.375
2019-05-29T11:52:02.000Z,20.125
2019-05-29T11:53:02.000Z,20.125
2019-05-29T11:54:02.000Z,20.25
2019-05-29T11:55:01.000Z,20.25
2019-05-29T11:56:01.000Z,20.625
2019-05-29T11:57:01.000Z,20.437
2019-05-29T11:58:01.000Z,20.5
2019-05-29T11:59:02.000Z,20.562
2019-05-29T12:00:02.000Z,20.562
2019-05-29T12:01:01.000Z,20.562
2019-05-29T12:02:01.000Z,20.375
2019-05-29T12:03:01.000Z,20.375
2019-05-29T12:04:01.000Z,20.375
2019-05-29T12:05:01.000Z,20.562
2019-05-29T12:05:02.000Z,20.562